Time;durP1;ratioP1;P1;durP2;ratioP2;P2;SDS_P1;SDS_P2;PMS_P1;PMS_P2;Temp;Humidity;BMP_temperature;BMP_pressure;BME280_temperature;BME280_humidity;BME280_pressure;Samples;Min_cycle;Max_cycle;Signal;HPM_P1;HPM_P2
2023/02/22 05:02:02;;;;;;;8.00;3.05;;;8.70;99.90;;;;;;5243806;23;20246;-67
2023/02/22 05:04:29;;;;;;;4.90;3.45;;;8.70;99.90;;;;;;4990540;28;20204;-67
2023/02/22 05:06:56;;;;;;;24.85;4.03;;;8.70;99.90;;;;;;4987415;28;20293;-68
2023/02/22 05:09:23;;;;;;;4.30;3.50;;;8.70;99.90;;;;;;4986958;28;20230;-67
2023/02/22 05:11:49;;;;;;;5.45;4.20;;;8.70;99.90;;;;;;4980777;28;20224;-68
2023/02/22 05:14:16;;;;;;;5.82;3.83;;;8.70;99.90;;;;;;4976026;28;20216;-67
2023/02/22 05:16:43;;;;;;;4.28;2.13;;;8.70;99.90;;;;;;5001540;23;20239;-70
2023/02/22 05:19:12;;;;;;;4.00;2.15;;;8.70;99.90;;;;;;4972517;28;20232;-68
2023/02/22 05:21:39;;;;;;;3.72;3.60;;;8.70;99.90;;;;;;4970760;28;20196;-70
2023/02/22 05:24:06;;;;;;;9.73;4.30;;;8.70;99.90;;;;;;4975277;28;20200;-70
2023/02/22 05:26:33;;;;;;;6.82;3.25;;;8.70;99.90;;;;;;4965426;28;20225;-69
2023/02/22 05:29:00;;;;;;;1.27;1.17;;;8.70;99.90;;;;;;4962576;28;20200;-70
2023/02/22 05:31:26;;;;;;;2.83;2.70;;;8.70;99.90;;;;;;4964920;28;20587;-69
2023/02/22 05:33:53;;;;;;;5.30;4.20;;;8.70;99.90;;;;;;4976063;28;20213;-70
2023/02/22 05:36:21;;;;;;;7.35;3.83;;;8.70;99.90;;;;;;4975123;28;20228;-70
2023/02/22 05:38:48;;;;;;;16.00;6.75;;;8.70;99.90;;;;;;4967554;28;20227;-70
2023/02/22 05:41:15;;;;;;;12.57;5.80;;;8.70;99.90;;;;;;4963726;28;20641;-68
2023/02/22 05:43:42;;;;;;;11.10;3.90;;;8.70;99.90;;;;;;4977192;28;20203;-70
2023/02/22 05:46:09;;;;;;;10.77;3.45;;;8.70;99.90;;;;;;4985702;28;20227;-68
2023/02/22 05:48:36;;;;;;;3.60;2.97;;;8.70;99.90;;;;;;4976363;28;20605;-69
2023/02/22 05:51:03;;;;;;;4.13;3.63;;;8.70;99.90;;;;;;4973667;28;20212;-69
2023/02/22 05:53:31;;;;;;;12.20;3.75;;;8.70;99.90;;;;;;4980055;28;20756;-68
2023/02/22 05:55:58;;;;;;;5.30;2.00;;;8.70;99.90;;;;;;4965736;28;20243;-70
2023/02/22 05:58:25;;;;;;;7.88;3.88;;;8.70;99.90;;;;;;4971617;28;20212;-69
2023/02/22 06:00:52;;;;;;;7.97;3.75;;;8.70;99.90;;;;;;4967172;28;20288;-69
2023/02/22 06:03:19;;;;;;;3.63;2.20;;;8.60;99.90;;;;;;4978873;28;20212;-69
2023/02/22 06:05:45;;;;;;;7.03;5.00;;;8.60;99.90;;;;;;4980241;28;20260;-69
2023/02/22 06:08:12;;;;;;;12.80;3.67;;;8.60;99.90;;;;;;4965273;28;20213;-69
2023/02/22 06:10:40;;;;;;;4.80;4.40;;;8.60;99.90;;;;;;4975931;28;20307;-69
2023/02/22 06:13:07;;;;;;;7.00;5.45;;;8.60;99.90;;;;;;4982971;28;20230;-70
2023/02/22 06:15:34;;;;;;;12.23;5.30;;;8.60;99.90;;;;;;4978508;28;20270;-69
2023/02/22 06:18:01;;;;;;;6.88;5.47;;;8.60;99.90;;;;;;4966943;28;20212;-69
2023/02/22 06:20:29;;;;;;;4.95;3.80;;;8.60;99.90;;;;;;4971501;28;20232;-70
2023/02/22 06:22:57;;;;;;;13.52;5.65;;;8.50;99.90;;;;;;4975230;28;20299;-69
2023/02/22 06:25:26;;;;;;;9.45;4.70;;;8.60;99.90;;;;;;4975302;28;20666;-67
2023/02/22 06:27:54;;;;;;;3.55;3.10;;;8.50;99.90;;;;;;4973301;28;20320;-67
2023/02/22 06:30:23;;;;;;;6.82;5.15;;;8.60;99.90;;;;;;4972784;28;20216;-68
2023/02/22 06:32:50;;;;;;;8.27;4.60;;;8.60;99.90;;;;;;4979360;28;20249;-69
2023/02/22 06:35:17;;;;;;;13.55;3.72;;;8.60;99.90;;;;;;4970596;28;20228;-66
2023/02/22 06:37:44;;;;;;;12.05;4.95;;;8.50;99.90;;;;;;4965189;28;20209;-66
2023/02/22 06:40:11;;;;;;;5.78;5.32;;;8.60;99.90;;;;;;4969749;28;20228;-67
2023/02/22 06:42:38;;;;;;;10.80;5.00;;;8.60;99.90;;;;;;4982058;28;20275;-69
2023/02/22 06:45:08;;;;;;;5.85;4.22;;;8.60;99.90;;;;;;4972472;28;20603;-67
2023/02/22 06:47:39;;;;;;;11.98;4.45;;;8.60;99.90;;;;;;4962864;28;20210;-68
2023/02/22 06:50:06;;;;;;;10.32;8.25;;;8.60;99.90;;;;;;4962260;28;20279;-67
2023/02/22 06:52:33;;;;;;;2.92;2.72;;;8.60;99.90;;;;;;4962906;28;20212;-69
2023/02/22 06:54:59;;;;;;;15.30;5.88;;;8.60;99.90;;;;;;4970223;28;20209;-67
2023/02/22 06:57:26;;;;;;;9.20;4.45;;;8.60;99.90;;;;;;4971969;28;20216;-67
2023/02/22 06:59:53;;;;;;;3.88;3.72;;;8.60;99.90;;;;;;4969320;28;20221;-67
2023/02/22 07:02:21;;;;;;;14.40;7.05;;;8.60;99.90;;;;;;4968557;28;20220;-68
2023/02/22 07:04:48;;;;;;;6.53;4.43;;;8.60;99.90;;;;;;4959187;28;20228;-68
2023/02/22 07:07:14;;;;;;;13.73;5.28;;;8.60;99.90;;;;;;4967324;28;20215;-67
2023/02/22 07:09:41;;;;;;;5.22;4.82;;;8.60;99.90;;;;;;4963684;28;20224;-68
2023/02/22 07:12:08;;;;;;;5.65;3.17;;;8.60;99.90;;;;;;4980910;28;20208;-68
2023/02/22 07:14:34;;;;;;;5.88;3.20;;;8.70;99.90;;;;;;4969083;28;20204;-67
2023/02/22 07:17:02;;;;;;;3.65;3.15;;;8.70;99.90;;;;;;4971460;28;20303;-68
2023/02/22 07:19:30;;;;;;;3.55;3.35;;;8.70;99.90;;;;;;4977448;28;20203;-67
2023/02/22 07:21:58;;;;;;;23.52;6.70;;;8.60;99.90;;;;;;4979543;28;20196;-66
2023/02/22 07:24:27;;;;;;;4.85;4.45;;;8.70;99.90;;;;;;4978294;28;20212;-67
2023/02/22 07:26:53;;;;;;;11.40;5.00;;;8.70;99.90;;;;;;4972490;28;20228;-69
2023/02/22 07:29:21;;;;;;;3.78;3.47;;;8.70;99.90;;;;;;4969136;28;20572;-69
2023/02/22 07:31:48;;;;;;;8.05;3.70;;;8.70;99.90;;;;;;4974440;28;21150;-67
2023/02/22 07:34:15;;;;;;;9.05;5.45;;;8.70;99.90;;;;;;4968073;28;20213;-69
2023/02/22 07:36:43;;;;;;;9.13;6.28;;;8.70;99.90;;;;;;4978509;28;20703;-68
2023/02/22 07:39:10;;;;;;;6.97;6.45;;;8.80;99.90;;;;;;4958415;28;20224;-69
2023/02/22 07:41:37;;;;;;;14.90;4.45;;;8.80;99.90;;;;;;4974681;28;20223;-69
2023/02/22 07:44:04;;;;;;;2.00;1.92;;;8.80;99.90;;;;;;4974365;28;20208;-69
2023/02/22 07:46:31;;;;;;;10.13;4.47;;;8.80;99.90;;;;;;4973394;28;20235;-68
2023/02/22 07:48:58;;;;;;;11.43;4.53;;;8.90;99.90;;;;;;4968575;28;20221;-68
2023/02/22 07:51:25;;;;;;;11.65;5.75;;;8.90;99.90;;;;;;4968689;28;20209;-68
2023/02/22 07:53:53;;;;;;;19.27;6.55;;;8.90;99.90;;;;;;4973883;28;20201;-66
2023/02/22 07:56:20;;;;;;;2.47;1.85;;;8.90;99.90;;;;;;4976924;28;20246;-66
2023/02/22 07:58:47;;;;;;;11.00;3.80;;;8.90;99.90;;;;;;4965083;28;20209;-68
2023/02/22 08:01:14;;;;;;;4.78;3.42;;;8.90;99.90;;;;;;4970782;28;20238;-67
2023/02/22 08:03:41;;;;;;;4.97;3.55;;;8.90;99.90;;;;;;4977319;28;20240;-68
2023/02/22 08:06:08;;;;;;;2.65;1.10;;;8.90;99.90;;;;;;4980940;28;20228;-68
2023/02/22 08:08:35;;;;;;;25.30;5.20;;;9.00;99.90;;;;;;4973086;28;20200;-67
2023/02/22 08:11:03;;;;;;;5.72;3.03;;;9.00;99.90;;;;;;4972615;28;20212;-68
2023/02/22 08:13:30;;;;;;;9.93;4.78;;;9.00;99.90;;;;;;4981259;28;20208;-68
2023/02/22 08:15:57;;;;;;;6.03;4.43;;;9.00;99.90;;;;;;4967951;28;20240;-67
2023/02/22 08:18:24;;;;;;;12.40;5.38;;;9.10;99.90;;;;;;4975602;28;20216;-68
2023/02/22 08:20:53;;;;;;;9.85;6.28;;;9.10;99.90;;;;;;4961347;28;20225;-67
2023/02/22 08:23:22;;;;;;;12.18;6.38;;;9.10;99.90;;;;;;4979191;28;20216;-67
2023/02/22 08:25:49;;;;;;;9.38;5.32;;;9.10;99.90;;;;;;4961248;28;20233;-67
2023/02/22 08:28:20;;;;;;;4.15;3.88;;;9.10;99.90;;;;;;4974690;28;20555;-67
2023/02/22 08:30:47;;;;;;;7.82;3.45;;;9.10;99.90;;;;;;4976283;28;20220;-67
2023/02/22 08:33:18;;;;;;;12.32;6.13;;;9.10;99.90;;;;;;4979969;28;20204;-67
2023/02/22 08:35:47;;;;;;;5.32;4.90;;;9.10;99.90;;;;;;4969061;28;20247;-66
2023/02/22 08:38:17;;;;;;;14.52;6.30;;;9.20;99.90;;;;;;4962162;28;20217;-67
2023/02/22 08:40:43;;;;;;;15.85;3.88;;;9.20;99.90;;;;;;4969917;28;20220;-67
2023/02/22 08:43:12;;;;;;;15.25;7.70;;;9.30;99.90;;;;;;4979164;28;20464;-68
2023/02/22 08:45:40;;;;;;;13.85;8.48;;;9.30;99.90;;;;;;4984937;28;20237;-67
2023/02/22 08:48:07;;;;;;;12.88;4.90;;;9.40;99.90;;;;;;4976348;28;20205;-67
2023/02/22 08:50:34;;;;;;;17.60;7.55;;;9.40;99.90;;;;;;4952400;28;20548;-67
2023/02/22 08:53:04;;;;;;;6.78;1.95;;;9.50;99.90;;;;;;4967738;28;20203;-68
2023/02/22 08:55:33;;;;;;;14.05;8.27;;;9.50;99.90;;;;;;4975723;28;20618;-67
2023/02/22 08:58:01;;;;;;;25.15;3.50;;;9.50;99.90;;;;;;4962681;28;20288;-67
2023/02/22 09:00:31;;;;;;;9.55;4.15;;;9.50;99.90;;;;;;4984239;28;20221;-67
2023/02/22 09:03:00;;;;;;;15.98;6.88;;;9.50;99.90;;;;;;4963125;28;20334;-67
2023/02/22 09:05:27;;;;;;;7.75;5.70;;;9.50;99.90;;;;;;4979385;28;20221;-67
2023/02/22 09:07:53;;;;;;;11.43;6.65;;;9.50;99.90;;;;;;4966900;28;20206;-67
2023/02/22 09:10:23;;;;;;;4.50;2.40;;;9.50;99.90;;;;;;4988629;28;20211;-67
2023/02/22 09:12:50;;;;;;;7.55;5.75;;;9.50;99.90;;;;;;4983328;28;20263;-68
2023/02/22 09:15:17;;;;;;;15.88;6.90;;;9.50;99.90;;;;;;4969738;28;20255;-68
2023/02/22 09:17:44;;;;;;;10.27;4.97;;;9.50;99.90;;;;;;4976399;28;20204;-68
2023/02/22 09:20:13;;;;;;;14.07;5.03;;;9.60;99.90;;;;;;4987745;28;20215;-68
2023/02/22 09:22:40;;;;;;;11.50;4.75;;;9.60;99.90;;;;;;4968015;28;20687;-69
2023/02/22 09:25:07;;;;;;;12.70;8.45;;;9.60;99.90;;;;;;4968831;28;20232;-68
2023/02/22 09:27:34;;;;;;;6.18;5.53;;;9.60;99.90;;;;;;4976019;28;20587;-67
2023/02/22 09:30:02;;;;;;;11.40;5.90;;;9.70;99.90;;;;;;4971721;28;20220;-69
2023/02/22 09:32:28;;;;;;;4.88;2.50;;;9.70;99.90;;;;;;4973091;28;20216;-68
2023/02/22 09:34:55;;;;;;;9.20;6.38;;;9.70;99.90;;;;;;4972136;28;20207;-69
2023/02/22 09:37:23;;;;;;;10.65;6.90;;;9.70;99.90;;;;;;4978526;28;20569;-69
2023/02/22 09:39:51;;;;;;;13.93;8.88;;;9.80;99.90;;;;;;4967253;28;20308;-69
2023/02/22 09:42:28;;;;;;;22.00;8.60;;;9.90;99.90;;;;;;4958322;28;20307;-68
2023/02/22 09:45:02;;;;;;;6.18;4.47;;;10.00;99.90;;;;;;4965006;28;20204;-67
2023/02/22 09:47:39;;;;;;;16.45;7.40;;;10.10;99.90;;;;;;4961529;28;20655;-68
2023/02/22 09:50:14;;;;;;;9.88;4.40;;;10.10;99.90;;;;;;4949818;28;20208;-68
2023/02/22 09:52:53;;;;;;;13.48;6.88;;;10.20;99.90;;;;;;4960425;28;20200;-67
2023/02/22 09:55:32;;;;;;;8.88;5.13;;;10.20;99.90;;;;;;4978686;28;20260;-68
2023/02/22 09:58:03;;;;;;;12.15;6.68;;;10.30;99.90;;;;;;4977435;28;20229;-67
2023/02/22 10:00:33;;;;;;;16.70;7.43;;;10.30;99.90;;;;;;4964955;28;20291;-68
2023/02/22 10:03:15;;;;;;;18.45;10.60;;;10.30;99.90;;;;;;4959638;28;20232;-68
2023/02/22 10:05:45;;;;;;;13.10;7.20;;;10.40;99.90;;;;;;4969043;28;20237;-68
2023/02/22 10:08:17;;;;;;;5.60;4.65;;;10.50;99.90;;;;;;4976382;28;20209;-68
2023/02/22 10:10:45;;;;;;;9.80;5.25;;;10.50;99.90;;;;;;4970302;28;20208;-68
2023/02/22 10:13:22;;;;;;;10.95;9.20;;;10.50;99.90;;;;;;4964451;28;20663;-68
2023/02/22 10:15:57;;;;;;;9.40;5.53;;;10.50;99.90;;;;;;4968765;28;20227;-68
2023/02/22 10:18:55;;;;;;;6.68;5.63;;;10.50;99.90;;;;;;4962478;28;20644;-67
2023/02/22 10:21:35;;;;;;;17.33;7.35;;;10.50;99.90;;;;;;4960105;28;20231;-67
2023/02/22 10:24:11;;;;;;;12.40;6.07;;;10.60;99.90;;;;;;4957471;28;20205;-68
2023/02/22 10:26:42;;;;;;;14.98;8.80;;;10.60;99.90;;;;;;4961511;28;20600;-68
2023/02/22 10:29:17;;;;;;;13.68;7.30;;;10.60;99.90;;;;;;4968247;28;20248;-68
2023/02/22 10:31:48;;;;;;;11.30;4.55;;;10.60;99.90;;;;;;4956199;28;20201;-70
2023/02/22 10:34:19;;;;;;;4.63;4.20;;;10.60;99.90;;;;;;4965457;28;20240;-69
2023/02/22 10:36:49;;;;;;;9.23;2.47;;;10.60;99.90;;;;;;4954638;28;20225;-69
2023/02/22 10:39:25;;;;;;;50.33;4.45;;;10.60;99.90;;;;;;4964613;28;20213;-70
2023/02/22 10:41:56;;;;;;;11.65;7.20;;;10.70;99.90;;;;;;4975121;28;20215;-70
2023/02/22 10:44:23;;;;;;;7.65;4.95;;;10.80;99.90;;;;;;4966744;28;20204;-68
2023/02/22 10:46:52;;;;;;;7.43;5.45;;;10.80;99.90;;;;;;4968756;28;20229;-69
2023/02/22 10:49:21;;;;;;;2.25;2.15;;;10.90;99.90;;;;;;4980365;28;20635;-68
2023/02/22 10:51:55;;;;;;;11.95;7.60;;;10.90;99.90;;;;;;4984872;28;20204;-68
2023/02/22 10:54:28;;;;;;;4.88;4.20;;;11.10;99.90;;;;;;4970589;28;20209;-68
2023/02/22 10:56:56;;;;;;;12.73;5.45;;;11.10;99.90;;;;;;4963867;28;20228;-68
2023/02/22 10:59:28;;;;;;;8.55;7.72;;;11.20;99.90;;;;;;4971507;28;20600;-70
2023/02/22 11:01:55;;;;;;;7.20;3.95;;;11.20;99.90;;;;;;4967969;28;20231;-69
2023/02/22 11:04:23;;;;;;;7.68;4.63;;;11.30;99.90;;;;;;4971588;28;20214;-69
2023/02/22 11:07:08;;;;;;;12.63;7.55;;;11.30;99.90;;;;;;4968099;28;20231;-69
2023/02/22 11:09:50;;;;;;;5.50;4.80;;;11.40;99.90;;;;;;4972513;28;20212;-69
2023/02/22 11:12:20;;;;;;;8.03;5.13;;;11.40;99.90;;;;;;4975465;28;20456;-70
2023/02/22 11:14:47;;;;;;;5.15;3.28;;;11.50;99.90;;;;;;4958209;28;20463;-69
2023/02/22 11:17:19;;;;;;;13.53;6.83;;;11.50;99.90;;;;;;4953824;28;20245;-69
2023/02/22 11:19:48;;;;;;;11.73;5.68;;;11.50;99.90;;;;;;4971665;28;21107;-67
2023/02/22 11:22:21;;;;;;;12.18;6.75;;;11.60;99.90;;;;;;4972652;28;20232;-70
2023/02/22 11:24:53;;;;;;;8.77;5.57;;;11.80;99.90;;;;;;4968552;28;20204;-70
2023/02/22 11:27:37;;;;;;;3.40;2.90;;;12.00;99.90;;;;;;4957656;28;20481;-69
2023/02/22 11:30:20;;;;;;;14.00;7.65;;;11.80;99.90;;;;;;4971932;28;20576;-68
2023/02/22 11:32:49;;;;;;;8.83;3.70;;;11.80;99.90;;;;;;4962416;28;20228;-68
2023/02/22 11:35:23;;;;;;;5.15;2.50;;;11.80;99.90;;;;;;4960191;28;20484;-68
2023/02/22 11:37:50;;;;;;;2.50;2.33;;;11.70;99.90;;;;;;4966514;28;20204;-69
2023/02/22 11:40:21;;;;;;;5.35;3.20;;;11.70;99.90;;;;;;4973191;28;20464;-68
2023/02/22 11:42:49;;;;;;;5.32;4.22;;;11.70;99.90;;;;;;4991832;28;20672;-69
2023/02/22 11:45:20;;;;;;;7.35;4.30;;;11.70;99.90;;;;;;4973309;28;20229;-69
2023/02/22 11:47:51;;;;;;;10.10;5.60;;;11.60;99.90;;;;;;4968240;28;20654;-69
2023/02/22 11:50:26;;;;;;;14.47;5.00;;;11.70;99.90;;;;;;4970983;28;20204;-68
2023/02/22 11:53:05;;;;;;;3.28;2.35;;;11.70;99.90;;;;;;4960087;28;20472;-69
2023/02/22 11:55:38;;;;;;;4.17;3.10;;;11.70;99.90;;;;;;4983255;28;20235;-69
2023/02/22 11:58:23;;;;;;;2.85;2.65;;;11.60;99.90;;;;;;4957565;28;20532;-69
2023/02/22 12:00:55;;;;;;;3.10;3.00;;;11.60;99.90;;;;;;4953848;28;20216;-68
2023/02/22 12:03:38;;;;;;;2.80;2.60;;;11.60;99.90;;;;;;4975767;28;20536;-69
2023/02/22 12:06:18;;;;;;;8.80;6.07;;;11.60;99.90;;;;;;4976787;28;20486;-69
2023/02/22 12:08:55;;;;;;;2.78;2.58;;;11.70;99.90;;;;;;4988774;28;20230;-69
2023/02/22 12:11:32;;;;;;;5.85;4.35;;;11.70;99.90;;;;;;4982589;28;20200;-68
2023/02/22 12:14:12;;;;;;;6.68;3.67;;;11.70;99.90;;;;;;4976288;28;20208;-69
2023/02/22 12:16:53;;;;;;;2.47;2.00;;;11.70;99.90;;;;;;4970864;28;20239;-69
2023/02/22 12:19:26;;;;;;;3.60;3.30;;;11.70;99.90;;;;;;4960731;28;20236;-68
2023/02/22 12:21:56;;;;;;;2.70;2.60;;;11.80;99.90;;;;;;4958656;28;20244;-68
2023/02/22 12:24:27;;;;;;;16.08;4.75;;;11.80;99.90;;;;;;4970257;28;20213;-69
2023/02/22 12:27:01;;;;;;;7.00;5.10;;;11.90;99.90;;;;;;4963700;28;20697;-67
2023/02/22 12:29:36;;;;;;;4.63;4.23;;;11.90;99.90;;;;;;4965467;28;20465;-67
2023/02/22 12:32:07;;;;;;;3.83;3.10;;;12.00;99.90;;;;;;4971662;28;20497;-67
2023/02/22 12:34:39;;;;;;;4.83;3.07;;;12.10;99.90;;;;;;4961695;28;20468;-67
2023/02/22 12:37:14;;;;;;;3.70;3.37;;;12.10;99.90;;;;;;4959728;28;21000;-68
2023/02/22 12:39:52;;;;;;;3.40;2.00;;;12.10;99.90;;;;;;4964167;28;20467;-68
2023/02/22 12:42:25;;;;;;;6.87;3.93;;;12.20;99.90;;;;;;4967097;28;20487;-67
2023/02/22 12:44:57;;;;;;;1.53;1.43;;;12.20;99.90;;;;;;4982348;28;20531;-67
2023/02/22 12:47:34;;;;;;;2.77;2.53;;;12.20;99.90;;;;;;4975777;28;20468;-68
2023/02/22 12:50:11;;;;;;;3.50;2.50;;;12.20;99.90;;;;;;4973676;28;20511;-67
2023/02/22 12:52:46;;;;;;;9.70;4.30;;;12.20;99.90;;;;;;4969310;28;20466;-67
2023/02/22 12:55:19;;;;;;;3.60;3.33;;;12.20;99.90;;;;;;4962637;28;20475;-67
2023/02/22 12:57:53;;;;;;;3.30;3.10;;;12.20;99.90;;;;;;4974563;28;20484;-67
2023/02/22 13:00:25;;;;;;;4.80;3.77;;;12.30;99.90;;;;;;4954928;28;20479;-68
2023/02/22 13:02:58;;;;;;;14.37;3.90;;;12.50;99.90;;;;;;4961716;28;20567;-67
2023/02/22 13:05:25;;;;;;;0.90;0.90;;;12.50;99.90;;;;;;4962393;28;20503;-67
2023/02/22 13:08:04;;;;;;;1.53;1.53;;;12.50;99.90;;;;;;4978432;28;20628;-68
2023/02/22 13:10:39;;;;;;;8.47;4.43;;;12.60;99.90;;;;;;4966815;28;20463;-68
2023/02/22 13:13:16;;;;;;;2.40;1.70;;;12.60;99.90;;;;;;4962512;28;20470;-67
2023/02/22 13:15:49;;;;;;;7.87;2.00;;;12.60;99.90;;;;;;4962124;28;20495;-67
2023/02/22 13:18:23;;;;;;;4.73;3.70;;;12.60;99.90;;;;;;4953124;28;20464;-66
2023/02/22 13:20:54;;;;;;;0.70;0.70;;;12.60;99.90;;;;;;4967895;28;20890;-67
2023/02/22 13:23:32;;;;;;;8.77;4.73;;;12.60;99.90;;;;;;4960242;28;20501;-67
2023/02/22 13:26:07;;;;;;;5.83;4.10;;;12.70;99.90;;;;;;4962025;28;20496;-67
2023/02/22 13:28:39;;;;;;;4.43;3.10;;;12.80;99.90;;;;;;4958527;28;20558;-66
2023/02/22 13:31:28;;;;;;;4.33;1.70;;;12.90;99.90;;;;;;4965279;28;20456;-67
2023/02/22 13:34:11;;;;;;;3.57;3.27;;;13.00;99.90;;;;;;4965990;28;20459;-67
2023/02/22 13:37:04;;;;;;;5.40;3.20;;;12.90;99.90;;;;;;4957309;28;20503;-67
2023/02/22 13:39:53;;;;;;;3.20;2.90;;;12.90;99.90;;;;;;4961447;28;20472;-67
2023/02/22 13:42:42;;;;;;;1.77;1.63;;;12.90;99.90;;;;;;4979980;28;20856;-68
2023/02/22 13:45:47;;;;;;;5.97;5.37;;;12.20;99.90;;;;;;4960308;28;20506;-67
2023/02/22 13:48:23;;;;;;;0.70;0.70;;;;;;;;;;4962730;28;20475;-66
2023/02/22 13:51:20;;;;;;;10.33;5.23;;;12.70;99.90;;;;;;4980592;28;20451;-66
2023/02/22 13:53:54;;;;;;;9.30;5.67;;;12.60;99.90;;;;;;4947819;28;21247;-67
2023/02/22 13:56:23;;;;;;;4.10;3.20;;;12.70;99.90;;;;;;4957843;28;20546;-69
2023/02/22 13:58:52;;;;;;;0.63;0.63;;;12.60;99.90;;;;;;4977388;28;20828;-68
2023/02/22 14:01:40;;;;;;;4.17;3.83;;;12.60;99.90;;;;;;4971811;28;20577;-68
2023/02/22 14:04:39;;;;;;;3.83;3.53;;;12.60;99.90;;;;;;4974316;28;20460;-68
2023/02/22 14:07:55;;;;;;;10.30;4.77;;;12.60;99.90;;;;;;4974517;28;20917;-68
2023/02/22 14:10:53;;;;;;;7.37;3.77;;;12.50;99.90;;;;;;4974535;28;20467;-69
2023/02/22 14:13:22;;;;;;;2.90;2.60;;;12.50;99.90;;;;;;4922119;29;20463;-67
2023/02/22 14:16:23;;;;;;;6.13;3.87;;;12.50;99.90;;;;;;4960375;28;20495;-68
2023/02/22 14:19:05;;;;;;;6.30;3.40;;;12.40;99.90;;;;;;4970436;28;20483;-67
2023/02/22 14:21:33;;;;;;;9.77;6.00;;;12.40;99.90;;;;;;4974209;28;20464;-67
2023/02/22 14:24:09;;;;;;;4.20;3.47;;;12.30;99.90;;;;;;4975869;28;20460;-68
2023/02/22 14:26:37;;;;;;;3.03;2.83;;;12.40;99.90;;;;;;4967507;28;20501;-68
2023/02/22 14:29:16;;;;;;;7.43;4.37;;;12.30;99.90;;;;;;4974391;28;20471;-68
2023/02/22 14:32:09;;;;;;;7.93;4.10;;;12.30;99.90;;;;;;4974574;28;20471;-68
2023/02/22 14:34:57;;;;;;;5.13;3.20;;;12.30;99.90;;;;;;4973891;28;20468;-68
2023/02/22 14:37:27;;;;;;;3.50;2.30;;;12.20;99.90;;;;;;4973697;28;20518;-68
2023/02/22 14:40:01;;;;;;;7.83;4.00;;;12.30;99.90;;;;;;4970228;28;21049;-68
2023/02/22 14:42:31;;;;;;;11.13;3.67;;;12.20;99.90;;;;;;4972763;28;20504;-68
2023/02/22 14:45:03;;;;;;;6.60;2.07;;;12.30;99.90;;;;;;4963799;28;20559;-68
2023/02/22 14:47:39;;;;;;;5.17;2.60;;;12.20;99.90;;;;;;4980792;28;20545;-67
2023/02/22 14:50:14;;;;;;;11.23;2.83;;;12.20;99.90;;;;;;4978241;28;20470;-68
2023/02/22 14:52:46;;;;;;;3.77;2.33;;;12.20;99.90;;;;;;4976880;28;20543;-68
2023/02/22 14:55:20;;;;;;;3.90;3.50;;;12.20;99.90;;;;;;4965167;28;20484;-68
2023/02/22 14:57:55;;;;;;;2.57;1.80;;;12.20;99.90;;;;;;4969646;28;20558;-68
2023/02/22 15:00:30;;;;;;;6.17;3.43;;;12.20;99.90;;;;;;4971943;28;20514;-68
2023/02/22 15:02:59;;;;;;;2.87;2.53;;;12.10;99.90;;;;;;4973713;28;20637;-67
2023/02/22 15:05:30;;;;;;;4.75;2.05;;;12.10;99.90;;;;;;4973338;28;20488;-67
2023/02/22 15:07:58;;;;;;;3.67;3.47;;;12.10;99.90;;;;;;4963895;28;20600;-67
2023/02/22 15:10:30;;;;;;;5.88;5.32;;;12.10;99.90;;;;;;4982018;28;20471;-68
2023/02/22 15:13:08;;;;;;;2.70;1.27;;;12.10;99.90;;;;;;4976865;28;20205;-68
2023/02/22 15:15:37;;;;;;;9.67;3.90;;;12.10;99.90;;;;;;4974469;28;20491;-67
2023/02/22 15:18:08;;;;;;;3.55;2.80;;;12.00;99.90;;;;;;4971724;28;20514;-68
2023/02/22 15:20:38;;;;;;;9.70;4.30;;;12.00;99.90;;;;;;4969046;28;20692;-67
2023/02/22 15:23:05;;;;;;;5.47;4.40;;;12.00;99.90;;;;;;4978262;28;20558;-67
2023/02/22 15:25:32;;;;;;;10.32;4.57;;;;;;;;;;4962330;28;20492;-69
2023/02/22 15:28:04;;;;;;;7.07;5.47;;;12.00;99.90;;;;;;4960891;28;20211;-68
2023/02/22 15:30:33;;;;;;;8.37;4.53;;;12.00;99.90;;;;;;4979325;28;21175;-68
2023/02/22 15:33:11;;;;;;;2.73;2.30;;;12.00;99.90;;;;;;4959454;28;20530;-68
2023/02/22 15:35:40;;;;;;;4.97;4.03;;;12.00;99.90;;;;;;4966691;28;20639;-68
2023/02/22 15:38:18;;;;;;;11.63;5.55;;;11.90;99.90;;;;;;4963880;28;20826;-68
2023/02/22 15:40:49;;;;;;;4.47;4.07;;;11.90;99.90;;;;;;4965413;28;20230;-67
2023/02/22 15:43:22;;;;;;;5.13;4.23;;;11.90;99.90;;;;;;4974948;28;20546;-69
2023/02/22 15:45:49;;;;;;;4.97;3.73;;;11.90;99.90;;;;;;4966157;28;20592;-66
2023/02/22 15:48:17;;;;;;;8.30;4.50;;;11.90;99.90;;;;;;4965343;28;20471;-67
2023/02/22 15:53:42;;;;;;;3.53;3.30;;;11.90;99.90;;;;;;5085013;27;21094;-66
2023/02/22 15:56:14;;;;;;;8.53;7.83;;;11.80;99.90;;;;;;5076843;28;20224;-68
2023/02/22 15:58:43;;;;;;;8.63;5.97;;;11.80;99.90;;;;;;5081299;28;20474;-68
2023/02/22 16:01:15;;;;;;;2.03;1.45;;;11.70;99.90;;;;;;5079843;28;20463;-68
2023/02/22 16:03:45;;;;;;;5.80;2.70;;;11.70;99.90;;;;;;5086199;28;20733;-67
2023/02/22 16:06:14;;;;;;;2.70;2.60;;;11.70;99.90;;;;;;5083086;28;20767;-67
2023/02/22 16:08:47;;;;;;;5.15;3.83;;;11.60;99.90;;;;;;5082817;28;20201;-67
2023/02/22 16:11:28;;;;;;;9.75;4.43;;;11.60;99.90;;;;;;5084382;28;20197;-68
2023/02/22 16:13:57;;;;;;;4.90;4.03;;;11.50;99.90;;;;;;5079235;28;20201;-67
2023/02/22 16:16:29;;;;;;;4.53;3.05;;;11.50;99.90;;;;;;5073673;28;20217;-68
2023/02/22 16:19:22;;;;;;;5.07;4.45;;;11.50;99.90;;;;;;5071503;28;20224;-68
2023/02/22 16:21:53;;;;;;;7.45;3.85;;;11.40;99.90;;;;;;5082981;28;20185;-67
2023/02/22 16:24:28;;;;;;;3.53;3.08;;;11.40;99.90;;;;;;5077985;28;20205;-68
2023/02/22 16:27:16;;;;;;;3.85;3.45;;;11.40;99.90;;;;;;5086959;28;20224;-67
2023/02/22 16:29:45;;;;;;;9.05;4.38;;;11.30;99.90;;;;;;5072769;28;20209;-66
2023/02/22 16:32:14;;;;;;;8.30;4.88;;;11.30;99.90;;;;;;5082239;28;20235;-67
2023/02/22 16:34:41;;;;;;;5.25;4.85;;;11.20;99.90;;;;;;5075610;28;20204;-67
2023/02/22 16:37:20;;;;;;;9.68;3.75;;;11.20;99.90;;;;;;5072558;28;20222;-67
2023/02/22 16:39:51;;;;;;;5.20;4.20;;;11.20;99.90;;;;;;5078313;28;20197;-67
2023/02/22 16:42:22;;;;;;;9.75;5.22;;;11.10;99.90;;;;;;5082465;28;20263;-66
2023/02/22 16:44:50;;;;;;;7.22;2.65;;;11.10;99.90;;;;;;5069696;28;20285;-67
2023/02/22 16:47:17;;;;;;;3.90;3.60;;;11.10;99.90;;;;;;5075914;28;20209;-67
2023/02/22 16:49:44;;;;;;;8.90;5.22;;;11.00;99.90;;;;;;5080476;28;20249;-67
2023/02/22 16:52:11;;;;;;;5.53;2.90;;;11.00;99.90;;;;;;5077250;28;20251;-67
2023/02/22 16:54:42;;;;;;;9.20;5.28;;;10.90;99.90;;;;;;5086091;28;20235;-67
2023/02/22 16:57:17;;;;;;;7.47;3.92;;;10.90;99.90;;;;;;5073155;28;20312;-68
2023/02/22 16:59:46;;;;;;;10.73;5.68;;;10.90;99.90;;;;;;5070347;28;20213;-68
2023/02/22 17:02:15;;;;;;;5.28;3.67;;;10.80;99.90;;;;;;5075668;28;20251;-66
2023/02/22 17:04:48;;;;;;;6.43;3.75;;;10.80;99.90;;;;;;5063753;28;20301;-66
2023/02/22 17:07:19;;;;;;;4.97;3.88;;;10.80;99.90;;;;;;5070771;28;20221;-67
2023/02/22 17:09:46;;;;;;;3.67;3.38;;;10.70;99.90;;;;;;5069512;28;20681;-66
2023/02/22 17:12:14;;;;;;;8.20;5.13;;;10.70;99.90;;;;;;5070953;28;20324;-69
2023/02/22 17:14:45;;;;;;;3.17;2.83;;;10.70;99.90;;;;;;5062084;28;20218;-67
2023/02/22 17:17:12;;;;;;;7.80;5.13;;;10.70;99.90;;;;;;5056762;28;20222;-66
2023/02/22 17:19:39;;;;;;;13.07;5.25;;;10.60;99.90;;;;;;5063308;28;20208;-67
2023/02/22 17:22:08;;;;;;;10.27;4.30;;;10.60;99.90;;;;;;5072325;28;20201;-67
2023/02/22 17:24:35;;;;;;;8.05;5.45;;;10.60;99.90;;;;;;5067452;28;20543;-67
2023/02/22 17:27:02;;;;;;;6.45;5.68;;;10.60;99.90;;;;;;5072485;28;20232;-67
2023/02/22 17:29:30;;;;;;;4.47;3.47;;;10.50;99.90;;;;;;5057185;28;20339;-67
2023/02/22 17:31:57;;;;;;;6.53;3.90;;;10.50;99.90;;;;;;5052858;28;20209;-67
2023/02/22 17:34:24;;;;;;;3.85;3.25;;;10.50;99.90;;;;;;5068077;28;20213;-66
2023/02/22 17:36:50;;;;;;;7.03;6.40;;;10.50;99.90;;;;;;5072440;28;20747;-66
2023/02/22 17:39:17;;;;;;;5.97;4.80;;;10.50;99.90;;;;;;5068917;28;20212;-66
2023/02/22 17:41:44;;;;;;;4.72;4.18;;;10.50;99.90;;;;;;5065349;28;20553;-66
2023/02/22 17:44:11;;;;;;;11.02;3.95;;;10.40;99.90;;;;;;5060786;28;20351;-67
2023/02/22 17:46:40;;;;;;;6.85;5.45;;;10.40;99.90;;;;;;5052162;28;20235;-66
2023/02/22 17:49:07;;;;;;;4.82;4.35;;;10.40;99.90;;;;;;5056326;28;20206;-67
2023/02/22 17:51:34;;;;;;;5.95;4.95;;;10.40;99.90;;;;;;5070028;28;20213;-68
2023/02/22 17:54:00;;;;;;;5.90;4.50;;;10.40;99.90;;;;;;5066287;28;20224;-67
2023/02/22 17:56:27;;;;;;;3.42;3.20;;;10.30;99.90;;;;;;5071353;28;20228;-68
2023/02/22 17:58:55;;;;;;;7.13;3.88;;;10.30;99.90;;;;;;5072471;28;20209;-67
2023/02/22 18:01:25;;;;;;;10.57;6.13;;;10.30;99.90;;;;;;5070535;28;20678;-67
2023/02/22 18:03:54;;;;;;;6.20;3.78;;;10.20;99.90;;;;;;5051672;28;20229;-67
2023/02/22 18:06:22;;;;;;;3.63;3.17;;;10.20;99.90;;;;;;5061854;28;20242;-67
2023/02/22 18:08:51;;;;;;;3.83;1.48;;;10.20;99.90;;;;;;5068649;28;20197;-66
2023/02/22 18:11:19;;;;;;;3.45;3.28;;;10.20;99.90;;;;;;5071468;28;20610;-66
2023/02/22 18:13:47;;;;;;;7.68;5.50;;;10.20;99.90;;;;;;5068541;28;20303;-67